createdAt,value
2022-08-28T00:00:05.772Z,16.98
2022-08-28T00:02:38.415Z,12.77
2022-08-28T00:05:08.805Z,15.05
2022-08-28T00:07:38.664Z,12.82
2022-08-28T00:10:09.726Z,19.27
2022-08-28T00:12:40.009Z,15.18
2022-08-28T00:15:11.974Z,13.38
2022-08-28T00:17:45.211Z,14.23
2022-08-28T00:23:00.489Z,15.98
2022-08-28T00:25:32.213Z,16.38
2022-08-28T00:28:00.671Z,18.70
2022-08-28T00:30:36.366Z,14.35
2022-08-28T00:33:10.732Z,14.50
2022-08-28T00:35:40.977Z,15.50
2022-08-28T00:38:11.002Z,14.80
2022-08-28T00:40:41.679Z,17.05
2022-08-28T00:43:12.181Z,16.13
2022-08-28T00:45:41.761Z,16.88
2022-08-28T00:48:14.121Z,19.60
2022-08-28T00:51:00.658Z,16.52
2022-08-28T00:53:32.910Z,14.85
2022-08-28T00:56:06.934Z,15.75
2022-08-28T00:58:43.182Z,15.38
2022-08-28T01:01:13.147Z,17.40
2022-08-28T01:03:45.720Z,15.32
2022-08-28T01:06:16.475Z,15.52
2022-08-28T01:08:50.520Z,16.50
2022-08-28T01:11:21.291Z,15.23
2022-08-28T01:13:51.344Z,17.00
2022-08-28T01:16:23.148Z,19.00
2022-08-28T01:19:03.376Z,16.88
2022-08-28T01:21:35.549Z,16.08
2022-08-28T01:24:10.238Z,15.57
2022-08-28T01:26:40.259Z,15.80
2022-08-28T01:29:10.397Z,15.05
2022-08-28T01:31:40.761Z,13.95
2022-08-28T01:34:12.182Z,13.30
2022-08-28T01:36:42.088Z,17.10
2022-08-28T01:39:15.641Z,17.38
2022-08-28T01:41:46.942Z,14.10
2022-08-28T01:44:17.899Z,13.98
2022-08-28T01:46:48.313Z,15.43
2022-08-28T01:49:18.113Z,13.85
2022-08-28T01:51:47.707Z,13.10
2022-08-28T01:54:20.930Z,12.70
2022-08-28T01:56:51.137Z,13.20
2022-08-28T01:59:21.194Z,15.23
2022-08-28T02:01:50.983Z,14.40
2022-08-28T02:04:20.678Z,16.98
2022-08-28T02:06:59.244Z,19.40
2022-08-28T02:09:32.105Z,18.63
2022-08-28T02:12:01.794Z,16.80
2022-08-28T02:14:32.299Z,15.98
2022-08-28T02:17:01.943Z,15.40
2022-08-28T02:19:32.360Z,16.67
2022-08-28T02:22:01.971Z,15.50
2022-08-28T02:24:34.168Z,17.27
2022-08-28T02:27:07.136Z,17.23
2022-08-28T02:29:36.713Z,15.30
2022-08-28T02:32:07.020Z,18.35
2022-08-28T02:34:36.650Z,15.13
2022-08-28T02:37:08.893Z,16.15
2022-08-28T02:39:41.199Z,19.95
2022-08-28T02:42:10.826Z,14.30
2022-08-28T02:44:42.731Z,17.73
2022-08-28T02:47:12.326Z,15.48
2022-08-28T02:49:41.930Z,17.15
2022-08-28T02:52:11.595Z,19.70
2022-08-28T02:54:44.115Z,15.57
2022-08-28T02:57:14.317Z,16.55
2022-08-28T02:59:44.088Z,14.43
2022-08-28T03:02:13.922Z,16.23
2022-08-28T03:04:44.818Z,15.23
2022-08-28T03:07:15.434Z,14.77
2022-08-28T03:09:47.741Z,15.57
2022-08-28T03:12:17.447Z,15.88
2022-08-28T03:14:47.070Z,15.18
2022-08-28T03:17:16.714Z,18.83
2022-08-28T03:19:46.348Z,18.08
2022-08-28T03:22:17.146Z,17.27
2022-08-28T03:24:46.790Z,16.73
2022-08-28T03:27:16.393Z,16.65
2022-08-28T03:29:46.037Z,17.65
2022-08-28T03:32:15.636Z,17.52
2022-08-28T03:34:45.212Z,22.70
2022-08-28T03:37:14.821Z,14.85
2022-08-28T03:39:44.462Z,16.60
2022-08-28T03:42:16.717Z,13.57
2022-08-28T03:44:46.816Z,14.93
2022-08-28T03:47:16.400Z,15.35
2022-08-28T03:49:46.230Z,13.50
2022-08-28T03:52:15.847Z,14.13
2022-08-28T03:54:45.573Z,18.45
2022-08-28T03:57:19.059Z,17.27
2022-08-28T03:59:49.253Z,18.20
2022-08-28T04:02:20.713Z,18.00
2022-08-28T04:04:50.320Z,15.25
2022-08-28T04:07:20.092Z,16.02
2022-08-28T04:09:49.943Z,17.10
2022-08-28T04:12:22.223Z,15.57
2022-08-28T04:14:51.792Z,18.45
2022-08-28T04:17:21.376Z,15.20
2022-08-28T04:19:50.988Z,18.60
2022-08-28T04:22:20.560Z,20.80
2022-08-28T04:24:53.253Z,17.05
2022-08-28T04:27:25.461Z,17.35
2022-08-28T04:29:55.073Z,17.13
2022-08-28T04:32:25.101Z,18.67
2022-08-28T04:34:54.743Z,20.00
2022-08-28T04:37:27.916Z,18.45
2022-08-28T04:39:57.748Z,19.33
2022-08-28T04:42:29.983Z,20.25
2022-08-28T04:45:00.142Z,20.02
2022-08-28T04:47:30.389Z,16.02
2022-08-28T04:50:00.599Z,17.15
2022-08-28T04:52:30.192Z,18.88
2022-08-28T04:54:59.789Z,19.23
2022-08-28T04:57:36.114Z,19.50
2022-08-28T05:00:07.149Z,17.83
2022-08-28T05:02:37.022Z,19.35
2022-08-28T05:05:07.060Z,16.90
2022-08-28T05:07:36.638Z,17.20
2022-08-28T05:10:06.505Z,18.75
2022-08-28T05:12:40.432Z,15.25
2022-08-28T05:15:10.790Z,18.75
2022-08-28T05:17:40.399Z,21.05
2022-08-28T05:20:10.619Z,19.13
2022-08-28T05:22:40.253Z,20.35
2022-08-28T05:25:10.248Z,24.55
2022-08-28T05:27:42.568Z,19.30
2022-08-28T05:30:12.924Z,21.10
2022-08-28T05:32:44.817Z,17.23
2022-08-28T05:35:14.761Z,17.35
2022-08-28T05:37:44.361Z,18.20
2022-08-28T05:40:14.462Z,17.73
2022-08-28T05:42:47.764Z,18.48
2022-08-28T05:45:17.364Z,18.35
2022-08-28T05:47:47.077Z,18.50
2022-08-28T05:50:16.698Z,19.13
2022-08-28T05:52:46.753Z,18.17
2022-08-28T05:55:18.484Z,18.38
2022-08-28T05:57:50.644Z,18.65
2022-08-28T06:00:20.321Z,16.77
2022-08-28T06:02:50.237Z,17.98
2022-08-28T06:05:20.408Z,21.25
2022-08-28T06:07:52.656Z,18.98
2022-08-28T06:10:22.271Z,19.23
2022-08-28T06:12:55.552Z,16.75
2022-08-28T06:15:27.055Z,17.80
2022-08-28T06:17:56.737Z,16.42
2022-08-28T06:20:26.332Z,20.38
2022-08-28T06:22:55.956Z,16.95
2022-08-28T06:25:25.536Z,19.75
2022-08-28T06:27:57.742Z,16.35
2022-08-28T06:30:27.372Z,17.63
2022-08-28T06:32:59.854Z,22.70
2022-08-28T06:35:30.273Z,22.83
2022-08-28T06:38:00.095Z,22.98
2022-08-28T06:40:30.017Z,24.48
2022-08-28T06:43:02.970Z,25.05
2022-08-28T06:45:32.615Z,21.35
2022-08-28T06:48:02.287Z,20.20
2022-08-28T06:50:31.880Z,21.23
2022-08-28T06:53:01.505Z,19.23
2022-08-28T06:55:31.144Z,17.02
2022-08-28T06:58:05.460Z,18.50
2022-08-28T07:00:35.583Z,19.08
2022-08-28T07:03:06.073Z,18.77
2022-08-28T07:05:36.020Z,16.77
2022-08-28T07:08:05.990Z,15.43
2022-08-28T07:10:35.679Z,15.48
2022-08-28T07:13:08.050Z,15.70
2022-08-28T07:15:37.768Z,19.48
2022-08-28T07:18:11.587Z,17.40
2022-08-28T07:20:41.381Z,19.65
2022-08-28T07:23:11.062Z,14.50
2022-08-28T07:25:42.221Z,19.98
2022-08-28T07:28:14.530Z,18.52
2022-08-28T07:30:44.542Z,16.92
2022-08-28T07:33:14.508Z,18.40
2022-08-28T07:35:46.509Z,14.85
2022-08-28T07:38:16.172Z,17.02
2022-08-28T07:40:46.153Z,20.92
2022-08-28T07:43:30.746Z,16.70
2022-08-28T07:46:01.532Z,16.88
2022-08-28T07:48:31.199Z,14.18
2022-08-28T07:51:00.812Z,18.38
2022-08-28T07:53:34.392Z,16.80
2022-08-28T07:56:06.147Z,17.42
2022-08-28T07:58:38.902Z,16.45
2022-08-28T08:01:08.698Z,15.35
2022-08-28T08:03:38.345Z,17.02
2022-08-28T08:06:08.710Z,17.20
2022-08-28T08:08:38.300Z,15.18
2022-08-28T08:11:11.207Z,16.75
2022-08-28T08:13:46.516Z,13.82
2022-08-28T08:16:21.809Z,12.05
2022-08-28T08:18:51.671Z,16.38
2022-08-28T08:21:21.969Z,12.63
2022-08-28T08:23:52.221Z,15.63
2022-08-28T08:26:24.107Z,12.07
2022-08-28T08:28:56.783Z,11.43
2022-08-28T08:31:27.522Z,9.40
2022-08-28T08:33:58.777Z,11.27
2022-08-28T08:36:29.174Z,8.88
2022-08-28T08:39:00.306Z,10.77
2022-08-28T08:41:32.947Z,8.45
2022-08-28T08:44:08.171Z,9.55
2022-08-28T08:46:40.702Z,9.55
2022-08-28T08:49:15.724Z,8.63
2022-08-28T08:51:46.038Z,9.10
2022-08-28T08:54:17.326Z,7.60
2022-08-28T08:56:47.908Z,9.45
2022-08-28T08:59:21.615Z,9.90
2022-08-28T09:01:53.441Z,8.07
2022-08-28T09:04:29.992Z,8.20
2022-08-28T09:07:02.649Z,7.38
2022-08-28T09:09:33.397Z,9.43
2022-08-28T09:12:05.008Z,7.57
2022-08-28T09:14:48.473Z,5.93
2022-08-28T09:17:19.554Z,8.00
2022-08-28T09:19:49.625Z,7.75
2022-08-28T09:22:19.238Z,8.90
2022-08-28T09:24:48.955Z,7.10
2022-08-28T09:27:30.217Z,8.32
2022-08-28T09:30:07.517Z,10.55
2022-08-28T09:32:38.866Z,11.93
2022-08-28T09:35:14.009Z,10.85
2022-08-28T09:37:44.325Z,11.00
2022-08-28T09:40:17.571Z,17.45
2022-08-28T09:43:11.882Z,11.07
2022-08-28T09:45:44.163Z,11.95
2022-08-28T09:48:22.161Z,10.23
2022-08-28T09:51:03.855Z,10.52
2022-08-28T09:53:34.775Z,10.80
2022-08-28T09:56:17.009Z,9.85
2022-08-28T09:58:48.165Z,10.00
2022-08-28T10:01:32.759Z,13.02
2022-08-28T10:04:09.076Z,21.38
2022-08-28T10:06:39.334Z,8.27
2022-08-28T10:09:21.140Z,8.43
2022-08-28T10:11:54.305Z,10.15
2022-08-28T10:14:31.814Z,11.15
2022-08-28T10:17:10.552Z,9.05
2022-08-28T10:19:44.555Z,9.30
2022-08-28T10:22:20.158Z,8.75
2022-08-28T10:24:59.151Z,8.68
2022-08-28T10:27:37.779Z,8.88
2022-08-28T10:30:12.917Z,8.35
2022-08-28T10:32:55.338Z,8.93
2022-08-28T10:35:26.595Z,11.10
2022-08-28T10:38:01.407Z,9.02
2022-08-28T10:40:32.429Z,9.52
2022-08-28T10:43:05.018Z,10.32
2022-08-28T10:45:36.146Z,9.77
2022-08-28T10:48:13.016Z,8.55
2022-08-28T10:50:45.702Z,8.70
2022-08-28T10:53:18.287Z,13.45
2022-08-28T10:55:54.117Z,7.97
2022-08-28T10:58:26.235Z,8.88
2022-08-28T11:00:57.871Z,9.05
2022-08-28T11:03:35.257Z,8.13
2022-08-28T11:06:08.815Z,10.18
2022-08-28T11:08:39.749Z,7.00
2022-08-28T11:11:13.639Z,6.53
2022-08-28T11:13:46.159Z,7.10
2022-08-28T11:16:21.141Z,7.55
2022-08-28T11:19:05.586Z,8.27
2022-08-28T11:21:39.255Z,6.00
2022-08-28T11:24:09.982Z,7.25
2022-08-28T11:26:43.838Z,5.55
2022-08-28T11:29:13.456Z,4.88
2022-08-28T11:31:43.559Z,4.47
2022-08-28T11:34:28.081Z,5.82
2022-08-28T11:37:07.070Z,5.28
2022-08-28T11:42:32.383Z,3.25
2022-08-28T11:45:02.813Z,3.25
2022-08-28T11:47:48.857Z,4.25
2022-08-28T11:50:26.899Z,2.60
2022-08-28T11:53:14.749Z,2.97
2022-08-28T11:55:53.506Z,3.85
2022-08-28T11:58:27.425Z,3.10
2022-08-28T12:01:00.766Z,4.18
2022-08-28T12:03:39.295Z,4.15
2022-08-28T12:06:09.915Z,5.57
2022-08-28T12:08:55.633Z,3.20
2022-08-28T12:11:40.212Z,6.13
2022-08-28T12:14:12.832Z,3.55
2022-08-28T12:16:57.366Z,3.55
2022-08-28T12:19:29.961Z,6.57
2022-08-28T12:21:59.571Z,6.97
2022-08-28T12:24:29.145Z,4.27
2022-08-28T12:26:59.475Z,4.53
2022-08-28T12:29:35.205Z,6.28
2022-08-28T12:32:20.437Z,8.02
2022-08-28T12:34:53.130Z,6.78
2022-08-28T12:37:51.427Z,6.65
2022-08-28T12:40:23.986Z,5.90
2022-08-28T12:42:56.124Z,9.80
2022-08-28T12:45:30.468Z,5.78
2022-08-28T12:48:03.011Z,4.57
2022-08-28T12:50:35.559Z,6.00
2022-08-28T12:53:06.888Z,7.60
2022-08-28T12:55:36.918Z,4.43
2022-08-28T12:58:07.365Z,3.67
2022-08-28T13:00:51.604Z,3.58
2022-08-28T13:03:21.322Z,3.30
2022-08-28T13:05:58.801Z,3.90
2022-08-28T13:08:28.979Z,2.60
2022-08-28T13:10:59.387Z,2.58
2022-08-28T13:13:33.572Z,2.30
2022-08-28T13:16:06.336Z,4.32
2022-08-28T13:18:40.443Z,2.92
2022-08-28T13:21:32.931Z,2.72
2022-08-28T13:24:24.358Z,4.85
2022-08-28T13:27:02.437Z,3.35
2022-08-28T13:29:32.550Z,1.47
2022-08-28T13:32:06.077Z,2.28
2022-08-28T13:34:36.961Z,2.38
2022-08-28T13:37:14.718Z,3.88
2022-08-28T13:39:50.126Z,4.28
2022-08-28T13:42:20.005Z,3.38
2022-08-28T13:44:50.843Z,2.30
2022-08-28T13:47:23.291Z,2.75
2022-08-28T13:49:52.944Z,2.40
2022-08-28T13:52:22.550Z,3.45
2022-08-28T13:54:52.138Z,2.63
2022-08-28T13:57:21.718Z,1.83
2022-08-28T13:59:55.391Z,2.83
2022-08-28T14:02:40.590Z,4.07
2022-08-28T14:05:10.658Z,2.58
2022-08-28T14:07:40.253Z,2.08
2022-08-28T14:10:14.608Z,4.55
2022-08-28T14:12:46.852Z,4.32
2022-08-28T14:15:17.192Z,4.00
2022-08-28T14:17:49.398Z,4.30
2022-08-28T14:20:19.102Z,4.43
2022-08-28T14:22:48.724Z,3.58
2022-08-28T14:25:18.417Z,3.72
2022-08-28T14:27:48.024Z,4.35
2022-08-28T14:30:20.079Z,4.57
2022-08-28T14:32:52.295Z,2.83
2022-08-28T14:35:22.056Z,3.47
2022-08-28T14:37:51.652Z,3.83
2022-08-28T14:40:21.398Z,3.42
2022-08-28T14:42:57.129Z,4.32
2022-08-28T14:45:26.777Z,3.20
2022-08-28T14:47:59.026Z,3.15
2022-08-28T14:50:28.617Z,3.20
2022-08-28T14:52:58.177Z,3.88
2022-08-28T14:55:30.846Z,5.85
2022-08-28T14:58:00.481Z,7.10
2022-08-28T15:00:30.269Z,4.05
2022-08-28T15:03:02.472Z,4.05
2022-08-28T15:05:32.078Z,3.75
2022-08-28T15:08:01.656Z,4.47
2022-08-28T15:10:31.341Z,3.60
2022-08-28T15:13:01.075Z,6.07
2022-08-28T15:15:31.263Z,5.47
2022-08-28T15:18:03.440Z,4.45
2022-08-28T15:20:33.581Z,5.30
2022-08-28T15:23:03.172Z,4.70
2022-08-28T15:25:32.844Z,4.10
2022-08-28T15:28:02.428Z,4.25
2022-08-28T15:30:32.057Z,5.95
2022-08-28T15:33:04.349Z,7.55
2022-08-28T15:35:34.561Z,7.22
2022-08-28T15:38:04.201Z,4.53
2022-08-28T15:40:46.183Z,5.45
2022-08-28T15:43:15.932Z,6.05
2022-08-28T15:45:45.629Z,5.35
2022-08-28T15:48:18.274Z,4.85
2022-08-28T15:50:47.902Z,5.05
2022-08-28T15:53:18.219Z,4.47
2022-08-28T15:55:48.110Z,4.60
2022-08-28T15:58:17.695Z,3.50
2022-08-28T16:00:47.296Z,4.18
2022-08-28T16:03:19.919Z,3.40
2022-08-28T16:05:49.699Z,5.47
2022-08-28T16:08:19.312Z,4.00
2022-08-28T16:10:50.020Z,6.45
2022-08-28T16:13:20.389Z,4.57
2022-08-28T16:15:49.974Z,5.05
2022-08-28T16:18:22.220Z,5.32
2022-08-28T16:20:51.749Z,3.88
2022-08-28T16:23:21.356Z,5.82
2022-08-28T16:25:50.990Z,4.68
2022-08-28T16:28:20.559Z,3.90
2022-08-28T16:30:50.337Z,6.28
2022-08-28T16:33:22.949Z,4.40
2022-08-28T16:35:55.008Z,5.53
2022-08-28T16:38:26.948Z,6.03
2022-08-28T16:40:56.636Z,5.05
2022-08-28T16:43:26.239Z,5.70
2022-08-28T16:45:56.075Z,5.68
2022-08-28T16:48:28.257Z,5.28
2022-08-28T16:50:57.947Z,4.60
2022-08-28T16:53:27.637Z,5.15
2022-08-28T16:55:58.618Z,4.80
2022-08-28T16:58:28.242Z,5.97
2022-08-28T17:00:57.927Z,5.90
2022-08-28T17:03:30.397Z,6.95
2022-08-28T17:06:00.602Z,5.00
2022-08-28T17:08:30.191Z,5.22
2022-08-28T17:10:59.967Z,6.45
2022-08-28T17:13:29.544Z,5.93
2022-08-28T17:15:59.182Z,5.13
2022-08-28T17:18:31.414Z,8.23
2022-08-28T17:21:13.446Z,7.68
2022-08-28T17:23:43.104Z,7.68
2022-08-28T17:26:12.792Z,9.30
2022-08-28T17:28:42.408Z,7.97
2022-08-28T17:31:12.125Z,8.35
2022-08-28T17:33:45.547Z,8.70
2022-08-28T17:36:22.282Z,10.15
2022-08-28T17:39:03.680Z,13.50
2022-08-28T17:41:33.927Z,14.20
2022-08-28T17:44:03.568Z,11.02
2022-08-28T17:46:37.436Z,10.57
2022-08-28T17:49:10.618Z,10.65
2022-08-28T17:51:43.515Z,10.90
2022-08-28T17:54:14.825Z,10.98
2022-08-28T17:56:45.025Z,10.43
2022-08-28T17:59:14.782Z,12.00
2022-08-28T18:01:45.120Z,10.20
2022-08-28T18:04:23.266Z,11.73
2022-08-28T18:06:54.944Z,13.80
2022-08-28T18:09:25.711Z,11.55
2022-08-28T18:11:55.355Z,11.70
2022-08-28T18:14:24.949Z,9.27
2022-08-28T18:16:54.563Z,17.35
2022-08-28T18:19:26.810Z,15.00
2022-08-28T18:21:56.432Z,13.35
2022-08-28T18:24:26.253Z,16.55
2022-08-28T18:26:57.935Z,13.85
2022-08-28T18:29:27.951Z,15.10
2022-08-28T18:32:02.039Z,12.50
2022-08-28T18:34:34.999Z,14.85
2022-08-28T18:37:04.945Z,13.15
2022-08-28T18:39:36.071Z,14.50
2022-08-28T18:42:06.112Z,11.20
2022-08-28T18:44:35.891Z,12.35
2022-08-28T18:47:06.274Z,12.18
2022-08-28T18:49:38.566Z,10.25
2022-08-28T18:52:08.520Z,12.50
2022-08-28T18:54:38.567Z,15.88
2022-08-28T18:57:08.686Z,12.38
2022-08-28T18:59:41.575Z,13.90
2022-08-28T19:02:11.448Z,12.02
2022-08-28T19:04:44.757Z,12.43
2022-08-28T19:07:14.792Z,12.50
2022-08-28T19:09:44.564Z,12.73
2022-08-28T19:12:14.527Z,12.05
2022-08-28T19:14:44.475Z,10.15
2022-08-28T19:17:19.031Z,11.65
2022-08-28T19:19:54.070Z,12.15
2022-08-28T19:22:24.656Z,11.82
2022-08-28T19:24:58.483Z,9.57
2022-08-28T19:27:28.820Z,9.82
2022-08-28T19:29:58.733Z,10.13
2022-08-28T19:32:28.568Z,9.60
2022-08-28T19:35:02.085Z,9.38
2022-08-28T19:37:32.469Z,9.38
2022-08-28T19:40:02.286Z,13.70
2022-08-28T19:42:32.121Z,12.73
2022-08-28T19:45:02.002Z,9.35
2022-08-28T19:47:33.930Z,12.85
2022-08-28T19:50:09.677Z,10.45
2022-08-28T19:52:39.563Z,9.07
2022-08-28T19:55:09.851Z,10.50
2022-08-28T19:57:39.870Z,10.48
2022-08-28T20:00:10.213Z,8.77
2022-08-28T20:02:39.872Z,9.77
2022-08-28T20:05:12.954Z,12.70
2022-08-28T20:07:43.703Z,11.48
2022-08-28T20:10:14.537Z,10.48
2022-08-28T20:12:48.440Z,12.88
2022-08-28T20:15:19.892Z,11.23
2022-08-28T20:17:49.899Z,8.70
2022-08-28T20:20:26.805Z,10.38
2022-08-28T20:22:59.430Z,12.80
2022-08-28T20:25:29.230Z,9.27
2022-08-28T20:28:01.663Z,8.20
2022-08-28T20:30:31.595Z,7.40
2022-08-28T20:33:02.764Z,11.20
2022-08-28T20:35:35.059Z,12.50
2022-08-28T20:38:04.698Z,8.15
2022-08-28T20:40:34.441Z,8.63
2022-08-28T20:43:04.060Z,8.23
2022-08-28T20:45:33.961Z,8.95
2022-08-28T20:48:03.572Z,10.88
2022-08-28T20:50:35.843Z,8.07
2022-08-28T20:53:05.488Z,8.73
2022-08-28T20:55:35.068Z,6.75
2022-08-28T20:58:04.688Z,8.05
2022-08-28T21:00:34.272Z,8.10
2022-08-28T21:03:03.969Z,9.63
2022-08-28T21:05:36.236Z,7.78
2022-08-28T21:08:06.049Z,8.90
2022-08-28T21:10:42.821Z,7.63
2022-08-28T21:13:12.624Z,8.88
2022-08-28T21:15:42.580Z,9.35
2022-08-28T21:18:12.269Z,9.32
2022-08-28T21:20:45.433Z,11.35
2022-08-28T21:23:15.058Z,11.52
2022-08-28T21:25:44.688Z,8.02
2022-08-28T21:28:14.269Z,10.15
2022-08-28T21:30:44.064Z,9.02
2022-08-28T21:33:13.659Z,9.43
2022-08-28T21:35:46.845Z,9.23
2022-08-28T21:38:16.424Z,11.13
2022-08-28T21:40:46.109Z,10.32
2022-08-28T21:43:15.792Z,10.50
2022-08-28T21:45:45.468Z,12.05
2022-08-28T21:48:15.311Z,7.18
2022-08-28T21:50:47.811Z,10.25
2022-08-28T21:53:19.913Z,9.73
2022-08-28T21:55:53.438Z,8.18
2022-08-28T21:58:23.941Z,12.07
2022-08-28T22:00:54.960Z,8.70
2022-08-28T22:03:24.711Z,11.98
2022-08-28T22:05:57.542Z,8.98
2022-08-28T22:08:28.771Z,8.13
2022-08-28T22:10:58.894Z,13.95
2022-08-28T22:13:28.462Z,8.23
2022-08-28T22:15:58.066Z,10.57
2022-08-28T22:18:32.053Z,10.73
2022-08-28T22:21:19.131Z,10.70
2022-08-28T22:23:49.239Z,9.55
2022-08-28T22:26:20.669Z,9.85
2022-08-28T22:28:50.583Z,12.38
2022-08-28T22:31:20.136Z,9.77
2022-08-28T22:33:50.006Z,10.02
2022-08-28T22:36:22.670Z,15.43
2022-08-28T22:38:53.423Z,9.65
2022-08-28T22:41:24.368Z,8.73
2022-08-28T22:43:55.969Z,8.95
2022-08-28T22:46:25.736Z,9.80
2022-08-28T22:48:55.381Z,11.57
2022-08-28T22:51:27.577Z,8.90
2022-08-28T22:53:57.249Z,8.30
2022-08-28T22:56:26.887Z,7.97
2022-08-28T22:58:56.503Z,11.50
2022-08-28T23:01:27.635Z,7.72
2022-08-28T23:03:57.920Z,9.45
2022-08-28T23:06:30.208Z,8.98
2022-08-28T23:08:59.849Z,11.18
2022-08-28T23:11:29.430Z,9.73
2022-08-28T23:13:59.039Z,9.77
2022-08-28T23:16:28.693Z,9.95
2022-08-28T23:19:13.652Z,10.50
2022-08-28T23:21:46.217Z,8.13
2022-08-28T23:24:16.547Z,9.50
2022-08-28T23:26:46.949Z,8.73
2022-08-28T23:29:17.466Z,8.60
2022-08-28T23:31:48.731Z,10.30
2022-08-28T23:34:18.446Z,11.05
2022-08-28T23:36:50.745Z,10.45
2022-08-28T23:39:20.685Z,9.88
2022-08-28T23:41:52.864Z,14.10
2022-08-28T23:44:22.745Z,9.25
2022-08-28T23:46:52.333Z,7.63
2022-08-28T23:49:26.702Z,10.38
2022-08-28T23:51:59.212Z,10.00
2022-08-28T23:54:29.423Z,11.57
2022-08-28T23:56:59.034Z,10.68
2022-08-28T23:59:29.176Z,11.98
